sensor_id;sensor_type;location;lat;lon;timestamp;pressure;altitude;pressure_sealevel;temperature;humidity
32638;BME280;19045;52.268;10.506;2022-08-04T00:01:35;100490.69;;;23.67;65.57
32638;BME280;19045;52.268;10.506;2022-08-04T00:04:12;100488.41;;;23.70;65.11
32638;BME280;19045;52.268;10.506;2022-08-04T00:06:47;100487.72;;;23.73;64.83
32638;BME280;19045;52.268;10.506;2022-08-04T00:09:24;100484.50;;;23.71;63.72
32638;BME280;19045;52.268;10.506;2022-08-04T00:11:57;100486.13;;;23.72;63.42
32638;BME280;19045;52.268;10.506;2022-08-04T00:14:29;100481.56;;;23.76;63.48
32638;BME280;19045;52.268;10.506;2022-08-04T00:17:03;100485.44;;;23.75;63.27
32638;BME280;19045;52.268;10.506;2022-08-04T00:19:32;100488.50;;;23.73;63.38
32638;BME280;19045;52.268;10.506;2022-08-04T00:22:03;100480.28;;;23.73;63.30
32638;BME280;19045;52.268;10.506;2022-08-04T00:24:30;100481.06;;;23.74;62.79
32638;BME280;19045;52.268;10.506;2022-08-04T00:26:57;100476.06;;;23.76;62.88
32638;BME280;19045;52.268;10.506;2022-08-04T00:29:24;100476.75;;;23.73;63.12
32638;BME280;19045;52.268;10.506;2022-08-04T00:31:53;100480.19;;;23.70;62.89
32638;BME280;19045;52.268;10.506;2022-08-04T00:34:23;100477.09;;;23.71;62.64
32638;BME280;19045;52.268;10.506;2022-08-04T00:36:51;100479.03;;;23.71;63.20
32638;BME280;19045;52.268;10.506;2022-08-04T00:39:19;100481.53;;;23.63;63.21
32638;BME280;19045;52.268;10.506;2022-08-04T00:41:53;100476.28;;;23.71;63.35
32638;BME280;19045;52.268;10.506;2022-08-04T00:44:31;100477.66;;;23.64;63.28
32638;BME280;19045;52.268;10.506;2022-08-04T00:47:14;100475.28;;;23.63;63.02
32638;BME280;19045;52.268;10.506;2022-08-04T00:50:07;100486.19;;;23.39;64.46
32638;BME280;19045;52.268;10.506;2022-08-04T00:52:56;100478.84;;;23.31;64.81
32638;BME280;19045;52.268;10.506;2022-08-04T00:58:41;100481.19;;;22.96;65.90
32638;BME280;19045;52.268;10.506;2022-08-04T01:01:14;100477.94;;;22.82;66.73
32638;BME280;19045;52.268;10.506;2022-08-04T01:03:49;100476.22;;;22.77;68.00
32638;BME280;19045;52.268;10.506;2022-08-04T01:06:30;100475.31;;;22.73;67.84
32638;BME280;19045;52.268;10.506;2022-08-04T01:09:06;100478.59;;;22.67;68.66
32638;BME280;19045;52.268;10.506;2022-08-04T01:11:52;100479.69;;;22.65;69.40
32638;BME280;19045;52.268;10.506;2022-08-04T01:14:54;100482.69;;;22.52;69.71
32638;BME280;19045;52.268;10.506;2022-08-04T01:17:25;100478.16;;;22.56;69.76
32638;BME280;19045;52.268;10.506;2022-08-04T01:20:00;100475.28;;;22.52;70.17
32638;BME280;19045;52.268;10.506;2022-08-04T01:25:56;100474.63;;;22.35;71.24
32638;BME280;19045;52.268;10.506;2022-08-04T01:28:35;100467.66;;;22.37;70.94
32638;BME280;19045;52.268;10.506;2022-08-04T01:31:10;100464.28;;;22.40;70.72
32638;BME280;19045;52.268;10.506;2022-08-04T01:33:43;100466.22;;;22.40;71.13
32638;BME280;19045;52.268;10.506;2022-08-04T01:36:11;100461.00;;;22.47;70.23
32638;BME280;19045;52.268;10.506;2022-08-04T01:38:39;100456.94;;;22.53;69.98
32638;BME280;19045;52.268;10.506;2022-08-04T01:41:09;100456.09;;;22.40;70.70
32638;BME280;19045;52.268;10.506;2022-08-04T01:43:41;100459.28;;;22.42;70.14
32638;BME280;19045;52.268;10.506;2022-08-04T01:46:12;100454.13;;;22.41;70.44
32638;BME280;19045;52.268;10.506;2022-08-04T01:48:41;100461.91;;;22.51;71.19
32638;BME280;19045;52.268;10.506;2022-08-04T01:51:10;100459.66;;;22.53;71.04
32638;BME280;19045;52.268;10.506;2022-08-04T01:53:38;100453.53;;;22.56;70.80
32638;BME280;19045;52.268;10.506;2022-08-04T01:56:09;100459.81;;;22.56;70.59
32638;BME280;19045;52.268;10.506;2022-08-04T01:58:38;100459.28;;;22.42;69.80
32638;BME280;19045;52.268;10.506;2022-08-04T02:01:06;100461.16;;;22.50;68.96
32638;BME280;19045;52.268;10.506;2022-08-04T02:03:36;100461.72;;;22.56;69.10
32638;BME280;19045;52.268;10.506;2022-08-04T02:06:22;100459.25;;;22.63;68.96
32638;BME280;19045;52.268;10.506;2022-08-04T02:08:53;100452.38;;;22.57;69.26
32638;BME280;19045;52.268;10.506;2022-08-04T02:11:28;100453.78;;;22.42;70.27
32638;BME280;19045;52.268;10.506;2022-08-04T02:13:57;100449.06;;;22.31;70.79
32638;BME280;19045;52.268;10.506;2022-08-04T02:16:31;100451.34;;;22.29;70.58
32638;BME280;19045;52.268;10.506;2022-08-04T02:19:03;100449.31;;;22.38;69.82
32638;BME280;19045;52.268;10.506;2022-08-04T02:21:33;100441.09;;;22.38;69.97
32638;BME280;19045;52.268;10.506;2022-08-04T02:24:02;100442.72;;;22.39;69.73
32638;BME280;19045;52.268;10.506;2022-08-04T02:26:32;100439.53;;;22.37;69.85
32638;BME280;19045;52.268;10.506;2022-08-04T02:29:03;100438.19;;;22.22;70.44
32638;BME280;19045;52.268;10.506;2022-08-04T02:31:38;100446.72;;;22.21;70.69
32638;BME280;19045;52.268;10.506;2022-08-04T02:34:16;100443.19;;;22.20;71.53
32638;BME280;19045;52.268;10.506;2022-08-04T02:36:47;100442.66;;;22.06;71.98
32638;BME280;19045;52.268;10.506;2022-08-04T02:39:18;100442.06;;;22.00;72.68
32638;BME280;19045;52.268;10.506;2022-08-04T02:41:45;100437.13;;;21.94;73.24
32638;BME280;19045;52.268;10.506;2022-08-04T02:44:13;100434.53;;;21.89;73.06
32638;BME280;19045;52.268;10.506;2022-08-04T02:46:41;100440.38;;;22.08;71.45
32638;BME280;19045;52.268;10.506;2022-08-04T02:49:10;100433.50;;;22.02;71.39
32638;BME280;19045;52.268;10.506;2022-08-04T02:51:40;100442.59;;;21.94;72.48
32638;BME280;19045;52.268;10.506;2022-08-04T02:54:07;100430.53;;;21.86;72.96
32638;BME280;19045;52.268;10.506;2022-08-04T02:56:36;100432.78;;;21.84;73.04
32638;BME280;19045;52.268;10.506;2022-08-04T02:59:08;100438.91;;;21.90;72.82
32638;BME280;19045;52.268;10.506;2022-08-04T03:01:35;100431.50;;;21.90;72.48
32638;BME280;19045;52.268;10.506;2022-08-04T03:04:28;100426.50;;;21.92;72.14
32638;BME280;19045;52.268;10.506;2022-08-04T03:13:38;100425.69;;;21.92;71.62
32638;BME280;19045;52.268;10.506;2022-08-04T03:16:28;100425.06;;;21.86;71.84
32638;BME280;19045;52.268;10.506;2022-08-04T03:25:25;100428.78;;;21.90;70.43
32638;BME280;19045;52.268;10.506;2022-08-04T03:28:21;100431.16;;;21.92;70.13
32638;BME280;19045;52.268;10.506;2022-08-04T03:34:02;100429.44;;;21.79;70.34
32638;BME280;19045;52.268;10.506;2022-08-04T03:36:53;100425.44;;;21.76;70.16
32638;BME280;19045;52.268;10.506;2022-08-04T03:39:45;100434.94;;;21.49;70.37
32638;BME280;19045;52.268;10.506;2022-08-04T03:42:31;100434.63;;;21.42;71.24
32638;BME280;19045;52.268;10.506;2022-08-04T03:45:23;100435.97;;;21.36;71.91
32638;BME280;19045;52.268;10.506;2022-08-04T03:48:12;100438.50;;;21.41;72.05
32638;BME280;19045;52.268;10.506;2022-08-04T03:51:01;100437.66;;;21.49;70.99
32638;BME280;19045;52.268;10.506;2022-08-04T03:54:08;100432.50;;;21.48;71.01
32638;BME280;19045;52.268;10.506;2022-08-04T03:56:55;100429.00;;;21.47;70.95
32638;BME280;19045;52.268;10.506;2022-08-04T03:59:50;100421.19;;;21.58;70.98
32638;BME280;19045;52.268;10.506;2022-08-04T04:02:53;100421.84;;;21.34;72.01
32638;BME280;19045;52.268;10.506;2022-08-04T04:08:28;100434.59;;;21.13;73.09
32638;BME280;19045;52.268;10.506;2022-08-04T04:11:38;100427.22;;;21.13;73.11
32638;BME280;19045;52.268;10.506;2022-08-04T04:14:29;100422.47;;;21.31;72.42
32638;BME280;19045;52.268;10.506;2022-08-04T04:17:08;100425.31;;;21.43;71.78
32638;BME280;19045;52.268;10.506;2022-08-04T04:20:03;100430.41;;;21.53;71.92
32638;BME280;19045;52.268;10.506;2022-08-04T04:22:54;100433.31;;;21.48;71.57
32638;BME280;19045;52.268;10.506;2022-08-04T04:25:35;100426.38;;;21.22;72.54
32638;BME280;19045;52.268;10.506;2022-08-04T04:28:21;100436.53;;;21.21;72.85
32638;BME280;19045;52.268;10.506;2022-08-04T04:31:02;100426.16;;;21.35;72.55
32638;BME280;19045;52.268;10.506;2022-08-04T04:33:47;100424.31;;;21.48;71.75
32638;BME280;19045;52.268;10.506;2022-08-04T04:36:27;100429.59;;;21.53;71.53
32638;BME280;19045;52.268;10.506;2022-08-04T04:39:00;100433.75;;;21.59;71.07
32638;BME280;19045;52.268;10.506;2022-08-04T04:41:35;100437.81;;;21.53;72.33
32638;BME280;19045;52.268;10.506;2022-08-04T04:44:48;100441.16;;;21.58;72.34
32638;BME280;19045;52.268;10.506;2022-08-04T04:47:27;100446.91;;;21.65;70.64
32638;BME280;19045;52.268;10.506;2022-08-04T04:50:03;100446.53;;;21.76;70.55
32638;BME280;19045;52.268;10.506;2022-08-04T04:52:39;100444.66;;;21.97;69.78
32638;BME280;19045;52.268;10.506;2022-08-04T04:55:14;100438.03;;;22.19;69.57
32638;BME280;19045;52.268;10.506;2022-08-04T04:57:44;100431.09;;;22.21;70.08
32638;BME280;19045;52.268;10.506;2022-08-04T05:00:12;100445.53;;;22.30;69.96
32638;BME280;19045;52.268;10.506;2022-08-04T05:03:04;100443.66;;;22.43;68.84
32638;BME280;19045;52.268;10.506;2022-08-04T05:05:45;100437.50;;;22.46;69.04
32638;BME280;19045;52.268;10.506;2022-08-04T05:08:29;100440.94;;;22.55;69.40
32638;BME280;19045;52.268;10.506;2022-08-04T05:11:15;100432.84;;;22.79;67.84
32638;BME280;19045;52.268;10.506;2022-08-04T05:13:50;100439.63;;;22.94;66.28
32638;BME280;19045;52.268;10.506;2022-08-04T05:16:20;100431.31;;;23.14;64.83
32638;BME280;19045;52.268;10.506;2022-08-04T05:18:53;100437.97;;;23.26;64.93
32638;BME280;19045;52.268;10.506;2022-08-04T05:21:33;100435.94;;;23.59;62.68
32638;BME280;19045;52.268;10.506;2022-08-04T05:24:05;100434.00;;;23.72;61.65
32638;BME280;19045;52.268;10.506;2022-08-04T05:26:38;100431.22;;;23.84;62.14
32638;BME280;19045;52.268;10.506;2022-08-04T05:29:08;100435.66;;;24.00;60.69
32638;BME280;19045;52.268;10.506;2022-08-04T05:31:39;100431.88;;;24.05;60.45
32638;BME280;19045;52.268;10.506;2022-08-04T05:34:11;100431.44;;;24.15;60.08
32638;BME280;19045;52.268;10.506;2022-08-04T05:36:45;100432.72;;;24.33;59.60
32638;BME280;19045;52.268;10.506;2022-08-04T05:39:18;100439.44;;;24.48;58.92
32638;BME280;19045;52.268;10.506;2022-08-04T05:41:47;100431.13;;;24.60;58.79
32638;BME280;19045;52.268;10.506;2022-08-04T05:44:15;100429.47;;;24.71;58.42
32638;BME280;19045;52.268;10.506;2022-08-04T05:46:42;100432.66;;;24.85;56.99
32638;BME280;19045;52.268;10.506;2022-08-04T05:49:11;100431.44;;;24.70;56.38
32638;BME280;19045;52.268;10.506;2022-08-04T05:51:40;100431.94;;;24.60;56.61
32638;BME280;19045;52.268;10.506;2022-08-04T05:54:08;100432.09;;;24.52;57.04
32638;BME280;19045;52.268;10.506;2022-08-04T05:56:36;100426.34;;;24.57;57.08
32638;BME280;19045;52.268;10.506;2022-08-04T05:59:04;100433.63;;;24.65;57.08
32638;BME280;19045;52.268;10.506;2022-08-04T06:01:33;100430.25;;;24.84;56.89
32638;BME280;19045;52.268;10.506;2022-08-04T06:04:02;100426.47;;;25.04;56.21
32638;BME280;19045;52.268;10.506;2022-08-04T06:06:29;100427.00;;;25.25;54.71
32638;BME280;19045;52.268;10.506;2022-08-04T06:08:58;100421.31;;;25.34;55.21
32638;BME280;19045;52.268;10.506;2022-08-04T06:11:26;100417.03;;;25.67;54.33
32638;BME280;19045;52.268;10.506;2022-08-04T06:13:55;100420.34;;;25.92;53.85
32638;BME280;19045;52.268;10.506;2022-08-04T06:16:23;100425.44;;;26.09;52.48
32638;BME280;19045;52.268;10.506;2022-08-04T06:18:52;100424.63;;;26.25;52.71
32638;BME280;19045;52.268;10.506;2022-08-04T06:21:23;100421.34;;;26.38;52.00
32638;BME280;19045;52.268;10.506;2022-08-04T06:23:53;100419.38;;;26.58;51.24
32638;BME280;19045;52.268;10.506;2022-08-04T06:26:24;100421.56;;;26.68;50.29
32638;BME280;19045;52.268;10.506;2022-08-04T06:28:51;100421.59;;;26.71;50.17
32638;BME280;19045;52.268;10.506;2022-08-04T06:31:21;100423.63;;;26.75;49.84
32638;BME280;19045;52.268;10.506;2022-08-04T06:34:08;100419.50;;;26.84;50.08
32638;BME280;19045;52.268;10.506;2022-08-04T06:36:37;100415.34;;;27.16;50.01
32638;BME280;19045;52.268;10.506;2022-08-04T06:39:06;100413.72;;;27.38;49.18
32638;BME280;19045;52.268;10.506;2022-08-04T06:41:35;100413.03;;;27.67;48.54
32638;BME280;19045;52.268;10.506;2022-08-04T06:44:05;100409.06;;;27.95;48.24
32638;BME280;19045;52.268;10.506;2022-08-04T06:46:34;100407.13;;;28.25;46.66
32638;BME280;19045;52.268;10.506;2022-08-04T06:49:02;100405.09;;;28.22;47.18
32638;BME280;19045;52.268;10.506;2022-08-04T06:51:30;100401.31;;;28.37;46.35
32638;BME280;19045;52.268;10.506;2022-08-04T06:53:58;100406.78;;;28.63;45.46
32638;BME280;19045;52.268;10.506;2022-08-04T06:56:26;100407.84;;;28.89;45.51
32638;BME280;19045;52.268;10.506;2022-08-04T06:58:55;100404.84;;;29.08;44.20
32638;BME280;19045;52.268;10.506;2022-08-04T07:01:23;100397.06;;;29.24;44.49
32638;BME280;19045;52.268;10.506;2022-08-04T07:03:51;100388.13;;;29.38;43.92
32638;BME280;19045;52.268;10.506;2022-08-04T07:06:20;100394.28;;;29.20;43.63
32638;BME280;19045;52.268;10.506;2022-08-04T07:08:48;100397.38;;;29.12;43.67
32638;BME280;19045;52.268;10.506;2022-08-04T07:11:16;100390.66;;;29.09;43.18
32638;BME280;19045;52.268;10.506;2022-08-04T07:13:44;100391.28;;;29.36;43.03
32638;BME280;19045;52.268;10.506;2022-08-04T07:16:14;100393.81;;;29.59;41.68
32638;BME280;19045;52.268;10.506;2022-08-04T07:18:42;100392.34;;;29.79;42.17
32638;BME280;19045;52.268;10.506;2022-08-04T07:21:10;100383.72;;;29.91;40.95
32638;BME280;19045;52.268;10.506;2022-08-04T07:23:37;100388.16;;;30.13;40.56
32638;BME280;19045;52.268;10.506;2022-08-04T07:26:04;100378.78;;;30.39;40.48
32638;BME280;19045;52.268;10.506;2022-08-04T07:28:30;100387.56;;;30.52;39.30
32638;BME280;19045;52.268;10.506;2022-08-04T07:30:57;100382.03;;;30.62;39.05
32638;BME280;19045;52.268;10.506;2022-08-04T07:33:26;100382.84;;;30.88;38.73
32638;BME280;19045;52.268;10.506;2022-08-04T07:35:54;100374.56;;;30.98;37.42
32638;BME280;19045;52.268;10.506;2022-08-04T07:38:22;100372.19;;;31.07;38.43
32638;BME280;19045;52.268;10.506;2022-08-04T07:40:49;100369.78;;;31.13;37.70
32638;BME280;19045;52.268;10.506;2022-08-04T07:43:16;100359.47;;;31.27;37.61
32638;BME280;19045;52.268;10.506;2022-08-04T07:45:43;100365.03;;;31.38;37.98
32638;BME280;19045;52.268;10.506;2022-08-04T07:48:10;100365.00;;;31.45;36.95
32638;BME280;19045;52.268;10.506;2022-08-04T07:50:41;100365.41;;;31.58;37.00
32638;BME280;19045;52.268;10.506;2022-08-04T07:53:08;100370.16;;;31.68;36.32
32638;BME280;19045;52.268;10.506;2022-08-04T07:55:37;100370.53;;;31.73;35.25
32638;BME280;19045;52.268;10.506;2022-08-04T07:58:04;100368.09;;;31.83;34.85
32638;BME280;19045;52.268;10.506;2022-08-04T08:00:31;100364.88;;;31.98;34.84
32638;BME280;19045;52.268;10.506;2022-08-04T08:02:59;100360.06;;;32.13;34.42
32638;BME280;19045;52.268;10.506;2022-08-04T08:05:26;100351.22;;;32.36;34.03
32638;BME280;19045;52.268;10.506;2022-08-04T08:07:55;100353.16;;;32.42;33.21
32638;BME280;19045;52.268;10.506;2022-08-04T08:10:23;100352.75;;;32.47;33.10
32638;BME280;19045;52.268;10.506;2022-08-04T08:12:51;100352.31;;;32.49;32.76
32638;BME280;19045;52.268;10.506;2022-08-04T08:15:18;100351.88;;;32.64;32.58
32638;BME280;19045;52.268;10.506;2022-08-04T08:17:45;100356.47;;;32.85;32.61
32638;BME280;19045;52.268;10.506;2022-08-04T08:20:12;100340.94;;;32.91;32.24
32638;BME280;19045;52.268;10.506;2022-08-04T08:22:40;100337.59;;;33.07;32.08
32638;BME280;19045;52.268;10.506;2022-08-04T08:25:10;100334.25;;;33.26;32.05
32638;BME280;19045;52.268;10.506;2022-08-04T08:27:37;100332.13;;;33.41;32.06
32638;BME280;19045;52.268;10.506;2022-08-04T08:30:05;100331.34;;;33.40;31.70
32638;BME280;19045;52.268;10.506;2022-08-04T08:32:32;100328.06;;;33.49;31.55
32638;BME280;19045;52.268;10.506;2022-08-04T08:34:59;100335.09;;;33.60;31.97
32638;BME280;19045;52.268;10.506;2022-08-04T08:37:32;100330.56;;;33.77;31.02
32638;BME280;19045;52.268;10.506;2022-08-04T08:40:15;100329.34;;;34.08;31.09
32638;BME280;19045;52.268;10.506;2022-08-04T08:43:04;100331.28;;;34.42;30.25
32638;BME280;19045;52.268;10.506;2022-08-04T08:49:01;100328.19;;;34.90;29.80
32638;BME280;19045;52.268;10.506;2022-08-04T08:54:56;100327.16;;;34.80;30.09
32638;BME280;19045;52.268;10.506;2022-08-04T08:57:49;100327.69;;;34.95;29.74
32638;BME280;19045;52.268;10.506;2022-08-04T09:00:27;100322.25;;;35.11;29.40
32638;BME280;19045;52.268;10.506;2022-08-04T09:03:26;100321.88;;;35.32;28.79
32638;BME280;19045;52.268;10.506;2022-08-04T09:06:04;100312.63;;;35.55;28.51
32638;BME280;19045;52.268;10.506;2022-08-04T09:09:03;100310.00;;;35.87;28.43
32638;BME280;19045;52.268;10.506;2022-08-04T09:11:43;100316.38;;;35.88;27.02
32638;BME280;19045;52.268;10.506;2022-08-04T09:14:19;100322.31;;;35.90;27.13
32638;BME280;19045;52.268;10.506;2022-08-04T09:16:51;100325.03;;;35.93;26.85
32638;BME280;19045;52.268;10.506;2022-08-04T09:19:24;100305.97;;;35.88;27.07
32638;BME280;19045;52.268;10.506;2022-08-04T09:22:00;100309.16;;;36.62;26.45
32638;BME280;19045;52.268;10.506;2022-08-04T09:24:34;100307.06;;;37.27;24.98
32638;BME280;19045;52.268;10.506;2022-08-04T09:27:09;100309.47;;;37.99;23.90
32638;BME280;19045;52.268;10.506;2022-08-04T09:29:47;100311.91;;;38.38;23.25
32638;BME280;19045;52.268;10.506;2022-08-04T09:32:25;100307.09;;;38.98;22.96
32638;BME280;19045;52.268;10.506;2022-08-04T09:34:58;100296.41;;;39.84;21.84
32638;BME280;19045;52.268;10.506;2022-08-04T09:37:33;100302.84;;;40.55;21.02
32638;BME280;19045;52.268;10.506;2022-08-04T09:40:06;100297.22;;;40.24;20.97
32638;BME280;19045;52.268;10.506;2022-08-04T09:42:43;100303.94;;;40.17;20.57
32638;BME280;19045;52.268;10.506;2022-08-04T09:45:23;100296.50;;;40.33;20.69
32638;BME280;19045;52.268;10.506;2022-08-04T09:47:57;100300.22;;;40.20;20.71
32638;BME280;19045;52.268;10.506;2022-08-04T09:50:32;100289.34;;;39.57;21.24
32638;BME280;19045;52.268;10.506;2022-08-04T09:53:12;100282.78;;;39.82;21.07
32638;BME280;19045;52.268;10.506;2022-08-04T09:55:52;100287.88;;;39.96;20.63
32638;BME280;19045;52.268;10.506;2022-08-04T09:58:27;100305.13;;;39.20;21.38
32638;BME280;19045;52.268;10.506;2022-08-04T10:01:06;100294.16;;;37.74;23.11
32638;BME280;19045;52.268;10.506;2022-08-04T10:03:35;100282.94;;;37.87;23.15
32638;BME280;19045;52.268;10.506;2022-08-04T10:06:09;100282.44;;;38.68;22.18
32638;BME280;19045;52.268;10.506;2022-08-04T10:08:58;100285.75;;;39.22;21.77
32638;BME280;19045;52.268;10.506;2022-08-04T10:11:39;100280.50;;;38.65;22.21
32638;BME280;19045;52.268;10.506;2022-08-04T10:14:18;100273.34;;;38.39;22.81
32638;BME280;19045;52.268;10.506;2022-08-04T10:16:55;100271.84;;;38.85;22.32
32638;BME280;19045;52.268;10.506;2022-08-04T10:19:25;100276.22;;;38.73;22.15
32638;BME280;19045;52.268;10.506;2022-08-04T10:22:00;100269.03;;;37.84;22.77
32638;BME280;19045;52.268;10.506;2022-08-04T10:24:38;100256.50;;;38.26;22.91
32638;BME280;19045;52.268;10.506;2022-08-04T10:27:13;100257.28;;;38.14;23.18
32638;BME280;19045;52.268;10.506;2022-08-04T10:29:42;100260.66;;;38.34;22.45
32638;BME280;19045;52.268;10.506;2022-08-04T10:32:16;100262.69;;;38.21;22.95
32638;BME280;19045;52.268;10.506;2022-08-04T10:35:00;100263.91;;;38.45;22.39
32638;BME280;19045;52.268;10.506;2022-08-04T10:37:31;100252.88;;;38.63;22.76
32638;BME280;19045;52.268;10.506;2022-08-04T10:40:04;100257.75;;;38.50;22.26
32638;BME280;19045;52.268;10.506;2022-08-04T10:42:57;100244.69;;;39.03;22.16
32638;BME280;19045;52.268;10.506;2022-08-04T10:45:31;100245.97;;;38.90;22.33
32638;BME280;19045;52.268;10.506;2022-08-04T10:48:07;100240.50;;;38.73;22.50
32638;BME280;19045;52.268;10.506;2022-08-04T10:50:39;100230.75;;;39.21;23.14
32638;BME280;19045;52.268;10.506;2022-08-04T10:53:12;100222.34;;;39.96;22.24
32638;BME280;19045;52.268;10.506;2022-08-04T10:55:48;100218.22;;;39.88;21.25
32638;BME280;19045;52.268;10.506;2022-08-04T10:58:19;100232.66;;;38.56;22.54
32638;BME280;19045;52.268;10.506;2022-08-04T11:00:47;100227.75;;;38.47;22.78
32638;BME280;19045;52.268;10.506;2022-08-04T11:03:23;100224.16;;;38.34;22.91
32638;BME280;19045;52.268;10.506;2022-08-04T11:05:52;100219.25;;;37.46;23.32
32638;BME280;19045;52.268;10.506;2022-08-04T11:08:24;100233.97;;;37.50;24.05
32638;BME280;19045;52.268;10.506;2022-08-04T11:11:00;100233.81;;;37.41;23.99
32638;BME280;19045;52.268;10.506;2022-08-04T11:13:32;100225.28;;;37.45;24.30
32638;BME280;19045;52.268;10.506;2022-08-04T11:16:03;100219.22;;;37.75;24.12
32638;BME280;19045;52.268;10.506;2022-08-04T11:18:35;100221.88;;;37.66;23.80
32638;BME280;19045;52.268;10.506;2022-08-04T11:21:09;100221.25;;;38.12;23.28
32638;BME280;19045;52.268;10.506;2022-08-04T11:23:43;100215.31;;;38.10;23.82
32638;BME280;19045;52.268;10.506;2022-08-04T11:26:14;100222.78;;;37.75;24.06
32638;BME280;19045;52.268;10.506;2022-08-04T11:28:48;100220.47;;;36.88;24.88
32638;BME280;19045;52.268;10.506;2022-08-04T11:31:21;100221.84;;;37.12;24.39
32638;BME280;19045;52.268;10.506;2022-08-04T11:33:57;100216.16;;;37.28;24.15
32638;BME280;19045;52.268;10.506;2022-08-04T11:36:33;100218.53;;;37.42;24.56
32638;BME280;19045;52.268;10.506;2022-08-04T11:39:06;100219.25;;;37.46;24.05
32638;BME280;19045;52.268;10.506;2022-08-04T11:41:45;100213.97;;;37.07;24.29
32638;BME280;19045;52.268;10.506;2022-08-04T11:44:18;100218.50;;;37.29;24.30
32638;BME280;19045;52.268;10.506;2022-08-04T11:46:48;100219.13;;;37.08;24.53
32638;BME280;19045;52.268;10.506;2022-08-04T11:49:25;100218.13;;;36.70;24.28
32638;BME280;19045;52.268;10.506;2022-08-04T11:51:55;100222.94;;;36.69;24.51
32638;BME280;19045;52.268;10.506;2022-08-04T11:54:22;100216.59;;;37.26;24.63
32638;BME280;19045;52.268;10.506;2022-08-04T11:56:49;100224.03;;;37.74;23.56
32638;BME280;19045;52.268;10.506;2022-08-04T11:59:16;100215.03;;;37.54;23.06
32638;BME280;19045;52.268;10.506;2022-08-04T12:02:04;100211.81;;;38.06;22.17
32638;BME280;19045;52.268;10.506;2022-08-04T12:04:43;100219.22;;;37.75;23.18
32638;BME280;19045;52.268;10.506;2022-08-04T12:07:17;100227.63;;;37.05;23.33
32638;BME280;19045;52.268;10.506;2022-08-04T12:09:50;100216.81;;;37.19;23.79
32638;BME280;19045;52.268;10.506;2022-08-04T12:12:23;100222.22;;;37.55;23.13
32638;BME280;19045;52.268;10.506;2022-08-04T12:14:58;100212.72;;;38.16;22.89
32638;BME280;19045;52.268;10.506;2022-08-04T12:17:37;100226.91;;;37.29;23.19
32638;BME280;19045;52.268;10.506;2022-08-04T12:20:09;100226.84;;;36.88;23.73
32638;BME280;19045;52.268;10.506;2022-08-04T12:22:44;100216.84;;;36.58;24.76
32638;BME280;19045;52.268;10.506;2022-08-04T12:25:16;100220.59;;;36.36;24.85
32638;BME280;19045;52.268;10.506;2022-08-04T12:27:48;100215.69;;;36.72;24.88
32638;BME280;19045;52.268;10.506;2022-08-04T12:30:18;100221.16;;;37.08;24.34
32638;BME280;19045;52.268;10.506;2022-08-04T12:32:50;100225.06;;;37.10;24.19
32638;BME280;19045;52.268;10.506;2022-08-04T12:35:24;100208.38;;;36.91;23.95
32638;BME280;19045;52.268;10.506;2022-08-04T12:37:56;100208.09;;;37.30;23.99
32638;BME280;19045;52.268;10.506;2022-08-04T12:40:30;100208.00;;;37.34;24.17
32638;BME280;19045;52.268;10.506;2022-08-04T12:43:04;100210.38;;;37.35;24.40
32638;BME280;19045;52.268;10.506;2022-08-04T12:45:34;100211.63;;;38.01;24.04
32638;BME280;19045;52.268;10.506;2022-08-04T12:48:03;100211.66;;;37.59;24.08
32638;BME280;19045;52.268;10.506;2022-08-04T12:50:33;100205.66;;;37.45;24.31
32638;BME280;19045;52.268;10.506;2022-08-04T12:53:10;100204.00;;;37.47;23.70
32638;BME280;19045;52.268;10.506;2022-08-04T12:55:43;100212.41;;;36.90;24.65
32638;BME280;19045;52.268;10.506;2022-08-04T12:58:17;100197.38;;;37.41;24.51
32638;BME280;19045;52.268;10.506;2022-08-04T13:00:49;100194.88;;;37.43;24.00
32638;BME280;19045;52.268;10.506;2022-08-04T13:03:20;100195.88;;;37.78;24.15
32638;BME280;19045;52.268;10.506;2022-08-04T13:05:52;100187.69;;;37.29;23.99
32638;BME280;19045;52.268;10.506;2022-08-04T13:08:20;100185.44;;;37.24;24.42
32638;BME280;19045;52.268;10.506;2022-08-04T13:10:50;100181.75;;;37.27;24.41
32638;BME280;19045;52.268;10.506;2022-08-04T13:13:19;100183.06;;;37.77;24.46
32638;BME280;19045;52.268;10.506;2022-08-04T13:15:54;100182.34;;;37.35;24.44
32638;BME280;19045;52.268;10.506;2022-08-04T13:18:22;100178.00;;;37.05;24.74
32638;BME280;19045;52.268;10.506;2022-08-04T13:20:51;100190.53;;;36.85;25.11
32638;BME280;19045;52.268;10.506;2022-08-04T13:23:19;100180.59;;;36.67;25.07
32638;BME280;19045;52.268;10.506;2022-08-04T13:25:47;100174.75;;;36.91;24.83
32638;BME280;19045;52.268;10.506;2022-08-04T13:28:18;100171.16;;;37.48;24.69
32638;BME280;19045;52.268;10.506;2022-08-04T13:30:47;100179.97;;;37.34;24.48
32638;BME280;19045;52.268;10.506;2022-08-04T13:33:15;100173.13;;;37.35;24.51
32638;BME280;19045;52.268;10.506;2022-08-04T13:35:43;100168.53;;;37.28;24.67
32638;BME280;19045;52.268;10.506;2022-08-04T13:38:12;100169.50;;;36.93;24.90
32638;BME280;19045;52.268;10.506;2022-08-04T13:40:40;100168.19;;;36.52;25.46
32638;BME280;19045;52.268;10.506;2022-08-04T13:43:09;100171.69;;;36.72;24.94
32638;BME280;19045;52.268;10.506;2022-08-04T13:45:40;100167.00;;;36.82;25.26
32638;BME280;19045;52.268;10.506;2022-08-04T13:48:08;100164.13;;;36.53;25.83